PWSweather.com
Personal Weather Stations
Station Observations
BC052CD
On, Kemptville, ON K0G 1J0

OnKemptville, ON K0G 1J0

Lat: 45.0173179, Lon: -75.6329355

Elevation: 295

Station Type: National Geographic 265NC

http://kerrentweather.ca

Latest ConditionsUpdated 9:30:06 PM EST Friday, Feb 23, 2018
Currently Today's Max Today's Min Today's Average
Temperature 38.7°F3.7°C 38.7°F3.7°C 15.8°F-9.0°C 26.4°F-3.1°C
Dew Point 37.9°F3.3°C 37.9°F3.3°C 9.6°F-12.4°C 19.6°F-6.9°C
Winds 4.8 mph E7.7 kmh E 6.7 mph WNW10.8 kmh WNW - 1.9 mph 3.1 kmh
Wind Gusts 11.5 mph18.5 kmh 14.3 mph23.0 kmh - -
Humidity 97% 97% 62% 75%
Pressure 30.07 in1018.3 mb 30.81 in1043.3 mb 30.05 in1017.6 mb -
Precipitation - 0.01 in0.3 mm - -
Hour Temp Dew Point Humidity Winds Wind Gusts Pressure Precip Precip Rate Daily Precip Total
09:30 PM 38.7°F3.7°C 37.9°F3.3°C 97% 4.8 mph E7.7 kmh E 11.5 mph18.5 kmh 30.07 in1018.3 mb 0.00 in0.0 mm 0.00 in0.0 mm 0.01 in0.3 mm
09:15 PM 38.5°F3.6°C 37.7°F3.2°C 97% 4.8 mph E7.7 kmh E 9.5 mph15.3 kmh 30.07 in1018.3 mb 0.00 in0.0 mm 0.00 in0.0 mm 0.01 in0.3 mm
09:00 PM 38.5°F3.6°C 37.4°F3.0°C 96% 2.8 mph E4.5 kmh E 8.7 mph14.0 kmh 30.07 in1018.3 mb 0.00 in0.0 mm 0.00 in0.0 mm 0.01 in0.3 mm
08:45 PM 38.5°F3.6°C 37.4°F3.0°C 96% 2.0 mph E3.2 kmh E 12.3 mph19.8 kmh 30.06 in1017.9 mb 0.00 in0.0 mm 0.00 in0.0 mm 0.01 in0.3 mm
08:30 PM 38.3°F3.5°C 37.0°F2.8°C 95% 3.9 mph E6.3 kmh E 13.4 mph21.6 kmh 30.05 in1017.6 mb 0.01 in0.3 mm 0.00 in0.0 mm 0.01 in0.3 mm
08:15 PM 37.8°F3.2°C 36.2°F2.3°C 94% 6.7 mph SE10.8 kmh SE 13.4 mph21.6 kmh 30.05 in1017.6 mb 0.01 in0.3 mm 0.00 in0.0 mm 0.01 in0.3 mm
08:00 PM 36.7°F2.6°C 34.9°F1.6°C 93% 4.8 mph SSW7.7 kmh SSW 11.5 mph18.5 kmh 30.06 in1017.9 mb 0.01 in0.3 mm 0.00 in0.0 mm 0.01 in0.3 mm
07:45 PM 34.7°F1.5°C 32.4°F0.2°C 91% 2.0 mph WNW3.2 kmh WNW 6.7 mph10.8 kmh 30.06 in1017.9 mb 0.01 in0.3 mm 0.04 in1.0 mm 0.01 in0.3 mm
07:30 PM 33.6°F0.9°C 30.5°F-0.8°C 88% 2.0 mph WNW3.2 kmh WNW 5.6 mph9.0 kmh 30.06 in1017.9 mb 0.00 in0.0 mm 0.00 in0.0 mm 0.00 in0.0 mm
07:15 PM 33.3°F0.7°C 30.1°F-1.1°C 88% Calm Calm 2.0 mph3.2 kmh 30.08 in1018.6 mb 0.00 in0.0 mm 0.00 in0.0 mm 0.00 in0.0 mm
07:00 PM 32.9°F0.5°C 29.5°F-1.4°C 87% Calm Calm 2.0 mph3.2 kmh 30.09 in1019.0 mb 0.00 in0.0 mm 0.00 in0.0 mm 0.00 in0.0 mm
06:45 PM 32.9°F0.5°C 29.5°F-1.4°C 87% 0.8 mph WNW1.3 kmh WNW 2.8 mph4.5 kmh 30.08 in1018.6 mb 0.00 in0.0 mm 0.00 in0.0 mm 0.00 in0.0 mm
06:30 PM 32.7°F0.4°C 29.0°F-1.7°C 86% Calm Calm 2.0 mph3.2 kmh 30.08 in1018.6 mb 0.00 in0.0 mm 0.00 in0.0 mm 0.00 in0.0 mm
06:15 PM 32.7°F0.4°C 28.7°F-1.8°C 85% Calm Calm 2.8 mph4.5 kmh 30.10 in1019.3 mb 0.00 in0.0 mm 0.00 in0.0 mm 0.00 in0.0 mm
06:00 PM 32.7°F0.4°C 28.7°F-1.8°C 85% Calm Calm 2.8 mph4.5 kmh 30.10 in1019.3 mb 0.00 in0.0 mm 0.00 in0.0 mm 0.00 in0.0 mm
05:45 PM 32.5°F0.3°C 28.3°F-2.1°C 84% 0.8 mph WNW1.3 kmh WNW 2.8 mph4.5 kmh 30.10 in1019.3 mb 0.00 in0.0 mm 0.00 in0.0 mm 0.00 in0.0 mm
05:30 PM 32.4°F0.2°C 27.8°F-2.3°C 83% Calm Calm 2.8 mph4.5 kmh 30.10 in1019.3 mb 0.00 in0.0 mm 0.00 in0.0 mm 0.00 in0.0 mm
05:15 PM 32.4°F0.2°C 27.5°F-2.5°C 82% 0.8 mph WNW1.3 kmh WNW 3.9 mph6.3 kmh 30.11 in1019.6 mb 0.00 in0.0 mm 0.00 in0.0 mm 0.00 in0.0 mm
05:00 PM 32.2°F0.1°C 27.0°F-2.8°C 81% Calm Calm 2.8 mph4.5 kmh 30.11 in1019.6 mb 0.00 in0.0 mm 0.00 in0.0 mm 0.00 in0.0 mm
04:45 PM 32.0°F0.0°C 26.2°F-3.2°C 79% Calm Calm 4.8 mph7.7 kmh 30.12 in1020.0 mb 0.00 in0.0 mm 0.00 in0.0 mm 0.00 in0.0 mm
04:30 PM 32.0°F0.0°C 25.9°F-3.4°C 78% 2.0 mph WNW3.2 kmh WNW 5.6 mph9.0 kmh 30.12 in1020.0 mb 0.00 in0.0 mm 0.00 in0.0 mm 0.00 in0.0 mm
04:15 PM 32.0°F0.0°C 25.3°F-3.7°C 76% 2.8 mph WNW4.5 kmh WNW 7.5 mph12.1 kmh 30.13 in1020.3 mb 0.00 in0.0 mm 0.00 in0.0 mm 0.00 in0.0 mm
04:00 PM 31.8°F-0.1°C 24.5°F-4.2°C 74% 2.8 mph WNW4.5 kmh WNW 5.6 mph9.0 kmh 30.15 in1021.0 mb 0.00 in0.0 mm 0.00 in0.0 mm 0.00 in0.0 mm
03:45 PM 31.6°F-0.2°C 23.7°F-4.6°C 72% Calm Calm 4.8 mph7.7 kmh 30.16 in1021.3 mb 0.00 in0.0 mm 0.00 in0.0 mm 0.00 in0.0 mm
03:30 PM 31.8°F-0.1°C 22.8°F-5.1°C 69% 2.0 mph WNW3.2 kmh WNW 4.8 mph7.7 kmh 30.18 in1022.0 mb 0.00 in0.0 mm 0.00 in0.0 mm 0.00 in0.0 mm
03:15 PM 31.6°F-0.2°C 22.0°F-5.6°C 67% Calm Calm 2.8 mph4.5 kmh 30.19 in1022.4 mb 0.00 in0.0 mm 0.00 in0.0 mm 0.00 in0.0 mm
03:00 PM 31.3°F-0.4°C 20.9°F-6.2°C 65% Calm Calm 3.9 mph6.3 kmh 30.20 in1022.7 mb 0.00 in0.0 mm 0.00 in0.0 mm 0.00 in0.0 mm
02:45 PM 31.1°F-0.5°C 20.4°F-6.4°C 64% 2.0 mph WNW3.2 kmh WNW 8.7 mph14.0 kmh 30.20 in1022.7 mb 0.00 in0.0 mm 0.00 in0.0 mm 0.00 in0.0 mm
02:30 PM 31.1°F-0.5°C 20.4°F-6.4°C 64% 0.8 mph WNW1.3 kmh WNW 5.6 mph9.0 kmh 30.21 in1023.0 mb 0.00 in0.0 mm 0.00 in0.0 mm 0.00 in0.0 mm
02:15 PM 30.9°F-0.6°C 20.2°F-6.6°C 64% 2.8 mph WNW4.5 kmh WNW 9.5 mph15.3 kmh 30.21 in1023.0 mb 0.00 in0.0 mm 0.00 in0.0 mm 0.00 in0.0 mm
02:00 PM 30.6°F-0.8°C 19.9°F-6.7°C 64% 2.0 mph WNW3.2 kmh WNW 6.7 mph10.8 kmh 30.23 in1023.7 mb 0.00 in0.0 mm 0.00 in0.0 mm 0.00 in0.0 mm
01:45 PM 30.4°F-0.9°C 19.7°F-6.8°C 64% 6.7 mph WNW10.8 kmh WNW 9.5 mph15.3 kmh 30.25 in1024.4 mb 0.00 in0.0 mm 0.00 in0.0 mm 0.00 in0.0 mm
01:30 PM 30.2°F-1.0°C 19.5°F-6.9°C 64% 0.8 mph WNW1.3 kmh WNW 9.5 mph15.3 kmh 30.26 in1024.7 mb 0.00 in0.0 mm 0.00 in0.0 mm 0.00 in0.0 mm
01:15 PM 30.0°F-1.1°C 19.4°F-7.0°C 64% 0.8 mph WNW1.3 kmh WNW 10.3 mph16.6 kmh 30.29 in1025.7 mb 0.00 in0.0 mm 0.00 in0.0 mm 0.00 in0.0 mm
01:00 PM 30.0°F-1.1°C 19.4°F-7.0°C 64% 2.0 mph WNW3.2 kmh WNW 8.7 mph14.0 kmh 30.30 in1026.1 mb 0.00 in0.0 mm 0.00 in0.0 mm 0.00 in0.0 mm
12:45 PM 30.0°F-1.1°C 19.0°F-7.2°C 63% 2.8 mph WNW4.5 kmh WNW 9.5 mph15.3 kmh 30.30 in1026.1 mb 0.00 in0.0 mm 0.00 in0.0 mm 0.00 in0.0 mm
12:30 PM 30.0°F-1.1°C 18.6°F-7.4°C 62% 3.9 mph WNW6.3 kmh WNW 11.5 mph18.5 kmh 30.32 in1026.8 mb 0.00 in0.0 mm 0.00 in0.0 mm 0.00 in0.0 mm
12:15 PM 29.8°F-1.2°C 18.4°F-7.6°C 62% 2.8 mph WNW4.5 kmh WNW 13.4 mph21.6 kmh 30.34 in1027.4 mb 0.00 in0.0 mm 0.00 in0.0 mm 0.00 in0.0 mm
12:00 PM 29.8°F-1.2°C 18.4°F-7.6°C 62% 3.9 mph WNW6.3 kmh WNW 10.3 mph16.6 kmh 30.38 in1028.8 mb 0.00 in0.0 mm 0.00 in0.0 mm 0.00 in0.0 mm
11:45 AM 29.8°F-1.2°C 18.8°F-7.3°C 63% 5.6 mph WNW9.0 kmh WNW 14.3 mph23.0 kmh 30.40 in1029.5 mb 0.00 in0.0 mm 0.00 in0.0 mm 0.00 in0.0 mm
11:30 AM 29.5°F-1.4°C 18.5°F-7.5°C 63% 4.8 mph WNW7.7 kmh WNW 14.3 mph23.0 kmh 30.41 in1029.8 mb 0.00 in0.0 mm 0.00 in0.0 mm 0.00 in0.0 mm
11:15 AM 28.9°F-1.7°C 18.3°F-7.6°C 64% 4.8 mph NE7.7 kmh NE 12.3 mph19.8 kmh 30.42 in1030.1 mb 0.00 in0.0 mm 0.00 in0.0 mm 0.00 in0.0 mm
11:00 AM 28.4°F-2.0°C 17.8°F-7.9°C 64% 2.0 mph NE3.2 kmh NE 7.5 mph12.1 kmh 30.46 in1031.5 mb 0.00 in0.0 mm 0.00 in0.0 mm 0.00 in0.0 mm
10:45 AM 28.0°F-2.2°C 17.8°F-7.9°C 65% 5.6 mph NE9.0 kmh NE 12.3 mph19.8 kmh 30.48 in1032.2 mb 0.00 in0.0 mm 0.00 in0.0 mm 0.00 in0.0 mm
10:30 AM 27.5°F-2.5°C 17.7°F-7.9°C 66% 2.0 mph NE3.2 kmh NE 12.3 mph19.8 kmh 30.49 in1032.5 mb 0.00 in0.0 mm 0.00 in0.0 mm 0.00 in0.0 mm
10:15 AM 26.8°F-2.9°C 17.0°F-8.3°C 66% 5.6 mph NE9.0 kmh NE 12.3 mph19.8 kmh 30.51 in1033.2 mb 0.00 in0.0 mm 0.00 in0.0 mm 0.00 in0.0 mm
10:00 AM 25.9°F-3.4°C 16.5°F-8.6°C 67% 5.6 mph NE9.0 kmh NE 9.5 mph15.3 kmh 30.52 in1033.5 mb 0.00 in0.0 mm 0.00 in0.0 mm 0.00 in0.0 mm
09:45 AM 25.2°F-3.8°C 15.8°F-9.0°C 67% 4.8 mph NNE7.7 kmh NNE 10.3 mph16.6 kmh 30.54 in1034.2 mb 0.00 in0.0 mm 0.00 in0.0 mm 0.00 in0.0 mm
09:30 AM 24.8°F-4.0°C 15.8°F-9.0°C 68% 3.9 mph N6.3 kmh N 8.7 mph14.0 kmh 30.56 in1034.9 mb 0.00 in0.0 mm 0.00 in0.0 mm 0.00 in0.0 mm
09:15 AM 24.4°F-4.2°C 15.8°F-9.0°C 69% 2.0 mph N3.2 kmh N 13.4 mph21.6 kmh 30.56 in1034.9 mb 0.00 in0.0 mm 0.00 in0.0 mm 0.00 in0.0 mm
09:00 AM 23.9°F-4.5°C 15.3°F-9.3°C 69% 2.8 mph N4.5 kmh N 10.3 mph16.6 kmh 30.58 in1035.6 mb 0.00 in0.0 mm 0.00 in0.0 mm 0.00 in0.0 mm
08:45 AM 23.5°F-4.7°C 15.2°F-9.3°C 70% 0.8 mph NW1.3 kmh NW 9.5 mph15.3 kmh 30.60 in1036.2 mb 0.00 in0.0 mm 0.00 in0.0 mm 0.00 in0.0 mm
08:30 AM 23.0°F-5.0°C 15.4°F-9.2°C 72% 0.8 mph NW1.3 kmh NW 9.5 mph15.3 kmh 30.60 in1036.2 mb 0.00 in0.0 mm 0.00 in0.0 mm 0.00 in0.0 mm
08:15 AM 22.5°F-5.3°C 15.2°F-9.3°C 73% 2.0 mph NW3.2 kmh NW 5.6 mph9.0 kmh 30.61 in1036.6 mb 0.00 in0.0 mm 0.00 in0.0 mm 0.00 in0.0 mm
08:00 AM 21.7°F-5.7°C 14.5°F-9.7°C 73% 2.8 mph NW4.5 kmh NW 10.3 mph16.6 kmh 30.61 in1036.6 mb 0.00 in0.0 mm 0.00 in0.0 mm 0.00 in0.0 mm
07:45 AM 21.4°F-5.9°C 14.1°F-9.9°C 73% 0.8 mph NW1.3 kmh NW 5.6 mph9.0 kmh 30.62 in1036.9 mb 0.00 in0.0 mm 0.00 in0.0 mm 0.00 in0.0 mm
07:30 AM 21.0°F-6.1°C 14.1°F-9.9°C 74% 0.8 mph NW1.3 kmh NW 7.5 mph12.1 kmh 30.63 in1037.3 mb 0.00 in0.0 mm 0.00 in0.0 mm 0.00 in0.0 mm
07:15 AM 20.7°F-6.3°C 13.7°F-10.2°C 74% 0.8 mph NW1.3 kmh NW 6.7 mph10.8 kmh 30.64 in1037.6 mb 0.00 in0.0 mm 0.00 in0.0 mm 0.00 in0.0 mm
07:00 AM 20.3°F-6.5°C 13.7°F-10.2°C 75% 2.8 mph NW4.5 kmh NW 5.6 mph9.0 kmh 30.64 in1037.6 mb 0.00 in0.0 mm 0.00 in0.0 mm 0.00 in0.0 mm
06:45 AM 20.3°F-6.5°C 13.7°F-10.2°C 75% 3.9 mph NW6.3 kmh NW 7.5 mph12.1 kmh 30.64 in1037.6 mb 0.00 in0.0 mm 0.00 in0.0 mm 0.00 in0.0 mm
06:30 AM 20.1°F-6.6°C 13.5°F-10.3°C 75% 0.8 mph NW1.3 kmh NW 4.8 mph7.7 kmh 30.64 in1037.6 mb 0.00 in0.0 mm 0.00 in0.0 mm 0.00 in0.0 mm
06:15 AM 20.1°F-6.6°C 13.8°F-10.1°C 76% 0.8 mph NW1.3 kmh NW 4.8 mph7.7 kmh 30.66 in1038.3 mb 0.00 in0.0 mm 0.00 in0.0 mm 0.00 in0.0 mm
06:00 AM 19.9°F-6.7°C 13.6°F-10.2°C 76% 2.0 mph NW3.2 kmh NW 4.8 mph7.7 kmh 30.66 in1038.3 mb 0.00 in0.0 mm 0.00 in0.0 mm 0.00 in0.0 mm
05:45 AM 19.9°F-6.7°C 13.9°F-10.1°C 77% 0.8 mph NW1.3 kmh NW 6.7 mph10.8 kmh 30.66 in1038.3 mb 0.00 in0.0 mm 0.00 in0.0 mm 0.00 in0.0 mm
05:30 AM 19.9°F-6.7°C 13.9°F-10.1°C 77% Calm Calm 3.9 mph6.3 kmh 30.67 in1038.6 mb 0.00 in0.0 mm 0.00 in0.0 mm 0.00 in0.0 mm
05:15 AM 20.1°F-6.6°C 14.4°F-9.8°C 78% 0.8 mph NW1.3 kmh NW 3.9 mph6.3 kmh 30.69 in1039.3 mb 0.00 in0.0 mm 0.00 in0.0 mm 0.00 in0.0 mm
04:45 AM 20.1°F-6.6°C 14.7°F-9.6°C 79% 3.9 mph NW6.3 kmh NW 6.7 mph10.8 kmh 30.70 in1039.6 mb 0.00 in0.0 mm 0.00 in0.0 mm 0.00 in0.0 mm
04:15 AM 19.8°F-6.8°C 14.9°F-9.5°C 81% 2.8 mph NW4.5 kmh NW 5.6 mph9.0 kmh 30.71 in1040.0 mb 0.00 in0.0 mm 0.00 in0.0 mm 0.00 in0.0 mm
04:00 AM 19.0°F-7.2°C 14.5°F-9.7°C 82% 2.0 mph NW3.2 kmh NW 3.9 mph6.3 kmh 30.72 in1040.3 mb 0.00 in0.0 mm 0.00 in0.0 mm 0.00 in0.0 mm
03:45 AM 18.1°F-7.7°C 13.3°F-10.4°C 81% 0.8 mph NW1.3 kmh NW 4.8 mph7.7 kmh 30.73 in1040.6 mb 0.00 in0.0 mm 0.00 in0.0 mm 0.00 in0.0 mm
03:30 AM 17.1°F-8.3°C 11.7°F-11.3°C 79% Calm Calm 2.0 mph3.2 kmh 30.75 in1041.3 mb 0.00 in0.0 mm 0.00 in0.0 mm 0.00 in0.0 mm
03:15 AM 16.7°F-8.5°C 11.4°F-11.4°C 79% Calm Calm 2.0 mph3.2 kmh 30.75 in1041.3 mb 0.00 in0.0 mm 0.00 in0.0 mm 0.00 in0.0 mm
03:00 AM 16.3°F-8.7°C 10.7°F-11.8°C 78% Calm Calm 2.0 mph3.2 kmh 30.76 in1041.7 mb 0.00 in0.0 mm 0.00 in0.0 mm 0.00 in0.0 mm
02:45 AM 16.2°F-8.8°C 10.6°F-11.9°C 78% Calm Calm -- 30.77 in1042.0 mb 0.00 in0.0 mm 0.00 in0.0 mm 0.00 in0.0 mm
02:30 AM 16.0°F-8.9°C 10.1°F-12.2°C 77% Calm Calm 2.0 mph3.2 kmh 30.77 in1042.0 mb 0.00 in0.0 mm 0.00 in0.0 mm 0.00 in0.0 mm
02:15 AM 15.8°F-9.0°C 9.6°F-12.4°C 76% Calm Calm 2.0 mph3.2 kmh 30.77 in1042.0 mb 0.00 in0.0 mm 0.00 in0.0 mm 0.00 in0.0 mm
02:00 AM 16.2°F-8.8°C 10.0°F-12.2°C 76% Calm Calm -- 30.79 in1042.7 mb 0.00 in0.0 mm 0.00 in0.0 mm 0.00 in0.0 mm
01:45 AM 16.3°F-8.7°C 10.2°F-12.1°C 76% Calm Calm 2.0 mph3.2 kmh 30.78 in1042.3 mb 0.00 in0.0 mm 0.00 in0.0 mm 0.00 in0.0 mm
01:30 AM 16.5°F-8.6°C 10.3°F-12.1°C 76% Calm Calm 2.0 mph3.2 kmh 30.78 in1042.3 mb 0.00 in0.0 mm 0.00 in0.0 mm 0.00 in0.0 mm
01:15 AM 16.5°F-8.6°C 10.3°F-12.1°C 76% Calm Calm 2.0 mph3.2 kmh 30.78 in1042.3 mb 0.00 in0.0 mm 0.00 in0.0 mm 0.00 in0.0 mm
01:00 AM 16.7°F-8.5°C 10.2°F-12.1°C 75% Calm Calm 2.0 mph3.2 kmh 30.77 in1042.0 mb 0.00 in0.0 mm 0.00 in0.0 mm 0.00 in0.0 mm
12:45 AM 16.7°F-8.5°C 10.2°F-12.1°C 75% Calm Calm 2.8 mph4.5 kmh 30.78 in1042.3 mb 0.00 in0.0 mm 0.00 in0.0 mm 0.00 in0.0 mm
12:30 AM 16.5°F-8.6°C 9.7°F-12.4°C 74% Calm Calm 2.8 mph4.5 kmh 30.81 in1043.3 mb 0.00 in0.0 mm 0.00 in0.0 mm 0.00 in0.0 mm
12:15 AM 17.1°F-8.3°C 10.3°F-12.1°C 74% 0.8 mph NW1.3 kmh NW 2.0 mph3.2 kmh 30.80 in1043.0 mb 0.00 in0.0 mm 0.00 in0.0 mm 0.00 in0.0 mm
12:00 AM 17.4°F-8.1°C 10.6°F-11.9°C 74% Calm Calm 0.8 mph1.3 kmh 30.80 in1043.0 mb 0.00 in0.0 mm 0.00 in0.0 mm 0.00 in0.0 mm